sensor_id;sensor_type;location;lat;lon;timestamp;P1;durP1;ratioP1;P2;durP2;ratioP2
77099;SDS011;66602;48.922;2.414;2023-11-22T00:02:03;10.07;;;9.23;;
77099;SDS011;66602;48.922;2.414;2023-11-22T00:04:28;11.10;;;9.23;;
77099;SDS011;66602;48.922;2.414;2023-11-22T00:06:54;12.07;;;9.82;;
77099;SDS011;66602;48.922;2.414;2023-11-22T00:09:19;12.30;;;10.00;;
77099;SDS011;66602;48.922;2.414;2023-11-22T00:11:47;12.00;;;10.80;;
77099;SDS011;66602;48.922;2.414;2023-11-22T00:14:13;10.00;;;9.15;;
77099;SDS011;66602;48.922;2.414;2023-11-22T00:16:39;14.10;;;10.20;;
77099;SDS011;66602;48.922;2.414;2023-11-22T00:19:05;37.38;;;10.90;;
77099;SDS011;66602;48.922;2.414;2023-11-22T00:21:31;15.20;;;9.77;;
77099;SDS011;66602;48.922;2.414;2023-11-22T00:23:57;13.73;;;10.55;;
77099;SDS011;66602;48.922;2.414;2023-11-22T00:26:22;16.73;;;11.20;;
77099;SDS011;66602;48.922;2.414;2023-11-22T00:28:48;15.57;;;10.18;;
77099;SDS011;66602;48.922;2.414;2023-11-22T00:31:14;12.77;;;10.10;;
77099;SDS011;66602;48.922;2.414;2023-11-22T00:33:40;12.80;;;11.25;;
77099;SDS011;66602;48.922;2.414;2023-11-22T00:36:05;14.00;;;10.90;;
77099;SDS011;66602;48.922;2.414;2023-11-22T00:38:33;18.15;;;12.07;;
77099;SDS011;66602;48.922;2.414;2023-11-22T00:41:01;14.20;;;10.57;;
77099;SDS011;66602;48.922;2.414;2023-11-22T00:43:27;13.88;;;11.23;;
77099;SDS011;66602;48.922;2.414;2023-11-22T00:45:52;16.98;;;11.13;;
77099;SDS011;66602;48.922;2.414;2023-11-22T00:48:18;16.00;;;11.07;;
77099;SDS011;66602;48.922;2.414;2023-11-22T00:50:44;15.30;;;11.75;;
77099;SDS011;66602;48.922;2.414;2023-11-22T00:53:09;14.32;;;10.88;;
77099;SDS011;66602;48.922;2.414;2023-11-22T00:55:35;14.43;;;11.02;;
77099;SDS011;66602;48.922;2.414;2023-11-22T00:58:00;16.88;;;11.18;;
77099;SDS011;66602;48.922;2.414;2023-11-22T01:00:29;16.25;;;11.20;;
77099;SDS011;66602;48.922;2.414;2023-11-22T01:02:55;15.27;;;11.27;;
77099;SDS011;66602;48.922;2.414;2023-11-22T01:05:20;16.05;;;11.25;;
77099;SDS011;66602;48.922;2.414;2023-11-22T01:07:47;16.65;;;11.55;;
77099;SDS011;66602;48.922;2.414;2023-11-22T01:10:13;13.43;;;11.70;;
77099;SDS011;66602;48.922;2.414;2023-11-22T01:12:39;11.85;;;10.68;;
77099;SDS011;66602;48.922;2.414;2023-11-22T01:15:04;11.43;;;10.30;;
77099;SDS011;66602;48.922;2.414;2023-11-22T01:17:31;12.05;;;10.85;;
77099;SDS011;66602;48.922;2.414;2023-11-22T01:19:56;12.75;;;10.60;;
77099;SDS011;66602;48.922;2.414;2023-11-22T01:22:23;15.13;;;10.85;;
77099;SDS011;66602;48.922;2.414;2023-11-22T01:24:49;12.38;;;10.70;;
77099;SDS011;66602;48.922;2.414;2023-11-22T01:27:14;15.70;;;11.10;;
77099;SDS011;66602;48.922;2.414;2023-11-22T01:29:40;12.38;;;11.13;;
77099;SDS011;66602;48.922;2.414;2023-11-22T01:32:06;12.70;;;11.48;;
77099;SDS011;66602;48.922;2.414;2023-11-22T01:34:33;12.93;;;10.25;;
77099;SDS011;66602;48.922;2.414;2023-11-22T01:37:02;18.58;;;10.50;;
77099;SDS011;66602;48.922;2.414;2023-11-22T01:39:28;13.38;;;11.05;;
77099;SDS011;66602;48.922;2.414;2023-11-22T01:41:53;16.25;;;11.13;;
77099;SDS011;66602;48.922;2.414;2023-11-22T01:44:19;18.77;;;11.15;;
77099;SDS011;66602;48.922;2.414;2023-11-22T01:46:44;12.95;;;10.85;;
77099;SDS011;66602;48.922;2.414;2023-11-22T01:49:10;14.55;;;12.10;;
77099;SDS011;66602;48.922;2.414;2023-11-22T01:51:37;16.85;;;10.35;;
77099;SDS011;66602;48.922;2.414;2023-11-22T01:54:03;15.27;;;10.90;;
77099;SDS011;66602;48.922;2.414;2023-11-22T01:56:31;15.80;;;10.95;;
77099;SDS011;66602;48.922;2.414;2023-11-22T01:58:57;17.48;;;10.68;;
77099;SDS011;66602;48.922;2.414;2023-11-22T02:01:25;15.90;;;11.73;;
77099;SDS011;66602;48.922;2.414;2023-11-22T02:03:51;12.68;;;11.38;;
77099;SDS011;66602;48.922;2.414;2023-11-22T02:06:18;17.20;;;12.32;;
77099;SDS011;66602;48.922;2.414;2023-11-22T02:08:44;16.92;;;12.35;;
77099;SDS011;66602;48.922;2.414;2023-11-22T02:11:10;18.77;;;12.63;;
77099;SDS011;66602;48.922;2.414;2023-11-22T02:13:35;15.63;;;12.38;;
77099;SDS011;66602;48.922;2.414;2023-11-22T02:16:02;16.70;;;13.23;;
77099;SDS011;66602;48.922;2.414;2023-11-22T02:18:28;17.40;;;13.30;;
77099;SDS011;66602;48.922;2.414;2023-11-22T02:20:54;19.67;;;14.25;;
77099;SDS011;66602;48.922;2.414;2023-11-22T02:23:20;15.57;;;13.45;;
77099;SDS011;66602;48.922;2.414;2023-11-22T02:25:45;16.35;;;13.90;;
77099;SDS011;66602;48.922;2.414;2023-11-22T02:28:11;19.58;;;14.05;;
77099;SDS011;66602;48.922;2.414;2023-11-22T02:30:37;17.30;;;14.05;;
77099;SDS011;66602;48.922;2.414;2023-11-22T02:33:02;19.02;;;13.82;;
77099;SDS011;66602;48.922;2.414;2023-11-22T02:35:29;17.67;;;15.20;;
77099;SDS011;66602;48.922;2.414;2023-11-22T02:37:56;19.05;;;14.02;;
77099;SDS011;66602;48.922;2.414;2023-11-22T02:40:22;20.35;;;13.32;;
77099;SDS011;66602;48.922;2.414;2023-11-22T02:42:49;21.88;;;13.95;;
77099;SDS011;66602;48.922;2.414;2023-11-22T02:45:16;14.88;;;12.68;;
77099;SDS011;66602;48.922;2.414;2023-11-22T02:47:43;19.50;;;13.50;;
77099;SDS011;66602;48.922;2.414;2023-11-22T02:50:15;18.75;;;12.77;;
77099;SDS011;66602;48.922;2.414;2023-11-22T02:52:41;17.55;;;12.50;;
77099;SDS011;66602;48.922;2.414;2023-11-22T02:55:07;15.00;;;12.77;;
77099;SDS011;66602;48.922;2.414;2023-11-22T02:57:36;19.42;;;12.43;;
77099;SDS011;66602;48.922;2.414;2023-11-22T03:00:04;15.80;;;12.30;;
77099;SDS011;66602;48.922;2.414;2023-11-22T03:02:33;13.05;;;11.57;;
77099;SDS011;66602;48.922;2.414;2023-11-22T03:04:58;13.75;;;12.35;;
77099;SDS011;66602;48.922;2.414;2023-11-22T03:07:26;13.65;;;12.18;;
77099;SDS011;66602;48.922;2.414;2023-11-22T03:09:52;14.13;;;11.93;;
77099;SDS011;66602;48.922;2.414;2023-11-22T03:12:19;13.88;;;12.23;;
77099;SDS011;66602;48.922;2.414;2023-11-22T03:14:48;19.33;;;12.50;;
77099;SDS011;66602;48.922;2.414;2023-11-22T03:17:16;13.05;;;11.75;;
77099;SDS011;66602;48.922;2.414;2023-11-22T03:19:42;20.05;;;12.32;;
77099;SDS011;66602;48.922;2.414;2023-11-22T03:22:10;15.57;;;12.60;;
77099;SDS011;66602;48.922;2.414;2023-11-22T03:24:35;19.00;;;11.57;;
77099;SDS011;66602;48.922;2.414;2023-11-22T03:27:02;14.65;;;11.57;;
77099;SDS011;66602;48.922;2.414;2023-11-22T03:29:28;13.68;;;11.93;;
77099;SDS011;66602;48.922;2.414;2023-11-22T03:31:54;13.40;;;11.88;;
77099;SDS011;66602;48.922;2.414;2023-11-22T03:34:20;12.57;;;11.35;;
77099;SDS011;66602;48.922;2.414;2023-11-22T03:36:45;13.50;;;11.95;;
77099;SDS011;66602;48.922;2.414;2023-11-22T03:39:11;17.10;;;12.32;;
77099;SDS011;66602;48.922;2.414;2023-11-22T03:41:39;18.67;;;11.93;;
77099;SDS011;66602;48.922;2.414;2023-11-22T03:44:05;17.17;;;13.23;;
77099;SDS011;66602;48.922;2.414;2023-11-22T03:46:34;14.60;;;11.32;;
77099;SDS011;66602;48.922;2.414;2023-11-22T03:49:03;18.73;;;11.95;;
77099;SDS011;66602;48.922;2.414;2023-11-22T03:51:29;17.42;;;11.48;;
77099;SDS011;66602;48.922;2.414;2023-11-22T03:53:55;14.00;;;11.60;;
77099;SDS011;66602;48.922;2.414;2023-11-22T03:56:21;15.38;;;11.50;;
77099;SDS011;66602;48.922;2.414;2023-11-22T03:58:46;12.95;;;11.30;;
77099;SDS011;66602;48.922;2.414;2023-11-22T04:01:14;13.65;;;11.50;;
77099;SDS011;66602;48.922;2.414;2023-11-22T04:03:41;14.45;;;11.55;;
77099;SDS011;66602;48.922;2.414;2023-11-22T04:06:07;12.35;;;10.95;;
77099;SDS011;66602;48.922;2.414;2023-11-22T04:08:34;12.63;;;11.27;;
77099;SDS011;66602;48.922;2.414;2023-11-22T04:11:00;15.25;;;11.77;;
77099;SDS011;66602;48.922;2.414;2023-11-22T04:13:27;16.52;;;12.73;;
77099;SDS011;66602;48.922;2.414;2023-11-22T04:15:53;15.50;;;12.75;;
77099;SDS011;66602;48.922;2.414;2023-11-22T04:18:19;14.70;;;12.48;;
77099;SDS011;66602;48.922;2.414;2023-11-22T04:20:45;15.80;;;11.68;;
77099;SDS011;66602;48.922;2.414;2023-11-22T04:23:11;15.43;;;12.70;;
77099;SDS011;66602;48.922;2.414;2023-11-22T04:25:37;13.32;;;11.90;;
77099;SDS011;66602;48.922;2.414;2023-11-22T04:28:02;16.17;;;11.57;;
77099;SDS011;66602;48.922;2.414;2023-11-22T04:30:28;16.63;;;13.38;;
77099;SDS011;66602;48.922;2.414;2023-11-22T04:32:54;19.75;;;13.07;;
77099;SDS011;66602;48.922;2.414;2023-11-22T04:35:19;19.05;;;13.38;;
77099;SDS011;66602;48.922;2.414;2023-11-22T04:37:45;22.10;;;13.35;;
77099;SDS011;66602;48.922;2.414;2023-11-22T04:40:12;20.13;;;14.02;;
77099;SDS011;66602;48.922;2.414;2023-11-22T04:42:39;26.30;;;14.18;;
77099;SDS011;66602;48.922;2.414;2023-11-22T04:45:05;17.92;;;13.65;;
77099;SDS011;66602;48.922;2.414;2023-11-22T04:47:31;19.85;;;12.85;;
77099;SDS011;66602;48.922;2.414;2023-11-22T04:49:57;20.00;;;13.48;;
77099;SDS011;66602;48.922;2.414;2023-11-22T04:52:22;20.50;;;14.13;;
77099;SDS011;66602;48.922;2.414;2023-11-22T04:54:48;16.33;;;12.80;;
77099;SDS011;66602;48.922;2.414;2023-11-22T04:57:13;22.05;;;14.65;;
77099;SDS011;66602;48.922;2.414;2023-11-22T04:59:39;16.80;;;14.25;;
77099;SDS011;66602;48.922;2.414;2023-11-22T05:02:05;24.05;;;13.73;;
77099;SDS011;66602;48.922;2.414;2023-11-22T05:04:32;22.88;;;13.85;;
77099;SDS011;66602;48.922;2.414;2023-11-22T05:06:57;18.85;;;13.60;;
77099;SDS011;66602;48.922;2.414;2023-11-22T05:09:23;22.48;;;14.02;;
77099;SDS011;66602;48.922;2.414;2023-11-22T05:11:49;18.67;;;13.07;;
77099;SDS011;66602;48.922;2.414;2023-11-22T05:14:14;16.08;;;12.80;;
77099;SDS011;66602;48.922;2.414;2023-11-22T05:16:40;19.02;;;13.40;;
77099;SDS011;66602;48.922;2.414;2023-11-22T05:19:05;13.73;;;12.20;;
77099;SDS011;66602;48.922;2.414;2023-11-22T05:21:31;15.68;;;12.80;;
77099;SDS011;66602;48.922;2.414;2023-11-22T05:23:57;16.15;;;12.88;;
77099;SDS011;66602;48.922;2.414;2023-11-22T05:26:23;15.30;;;12.85;;
77099;SDS011;66602;48.922;2.414;2023-11-22T05:28:48;14.27;;;12.00;;
77099;SDS011;66602;48.922;2.414;2023-11-22T05:31:14;15.35;;;12.82;;
77099;SDS011;66602;48.922;2.414;2023-11-22T05:33:39;14.13;;;11.90;;
77099;SDS011;66602;48.922;2.414;2023-11-22T05:36:06;13.18;;;11.88;;
77099;SDS011;66602;48.922;2.414;2023-11-22T05:38:32;12.77;;;11.48;;
77099;SDS011;66602;48.922;2.414;2023-11-22T05:41:00;11.35;;;10.25;;
77099;SDS011;66602;48.922;2.414;2023-11-22T05:43:26;14.25;;;10.43;;
77099;SDS011;66602;48.922;2.414;2023-11-22T05:45:55;12.48;;;11.07;;
77099;SDS011;66602;48.922;2.414;2023-11-22T05:48:21;10.93;;;10.00;;
77099;SDS011;66602;48.922;2.414;2023-11-22T05:50:48;10.98;;;9.98;;
77099;SDS011;66602;48.922;2.414;2023-11-22T05:53:13;13.63;;;10.52;;
77099;SDS011;66602;48.922;2.414;2023-11-22T05:55:47;11.48;;;10.35;;
77099;SDS011;66602;48.922;2.414;2023-11-22T05:58:13;11.98;;;10.73;;
77099;SDS011;66602;48.922;2.414;2023-11-22T06:00:43;11.38;;;10.23;;
77099;SDS011;66602;48.922;2.414;2023-11-22T06:03:10;11.57;;;10.50;;
77099;SDS011;66602;48.922;2.414;2023-11-22T06:05:36;11.30;;;10.25;;
77099;SDS011;66602;48.922;2.414;2023-11-22T06:08:02;13.05;;;11.00;;
77099;SDS011;66602;48.922;2.414;2023-11-22T06:10:27;13.48;;;11.10;;
77099;SDS011;66602;48.922;2.414;2023-11-22T06:12:53;11.52;;;10.23;;
77099;SDS011;66602;48.922;2.414;2023-11-22T06:15:19;12.23;;;10.52;;
77099;SDS011;66602;48.922;2.414;2023-11-22T06:17:46;15.15;;;10.85;;
77099;SDS011;66602;48.922;2.414;2023-11-22T06:20:13;12.73;;;11.52;;
77099;SDS011;66602;48.922;2.414;2023-11-22T06:22:39;16.80;;;12.85;;
77099;SDS011;66602;48.922;2.414;2023-11-22T06:25:10;13.57;;;12.05;;
77099;SDS011;66602;48.922;2.414;2023-11-22T06:27:37;13.02;;;11.82;;
77099;SDS011;66602;48.922;2.414;2023-11-22T06:30:03;13.75;;;12.05;;
77099;SDS011;66602;48.922;2.414;2023-11-22T06:32:31;17.83;;;13.50;;
77099;SDS011;66602;48.922;2.414;2023-11-22T06:34:57;21.70;;;14.50;;
77099;SDS011;66602;48.922;2.414;2023-11-22T06:37:22;24.02;;;15.13;;
77099;SDS011;66602;48.922;2.414;2023-11-22T06:39:48;27.77;;;17.75;;
77099;SDS011;66602;48.922;2.414;2023-11-22T06:42:13;31.17;;;18.48;;
77099;SDS011;66602;48.922;2.414;2023-11-22T06:44:39;20.20;;;15.65;;
77099;SDS011;66602;48.922;2.414;2023-11-22T06:47:07;24.23;;;15.50;;
77099;SDS011;66602;48.922;2.414;2023-11-22T06:49:32;34.22;;;20.73;;
77099;SDS011;66602;48.922;2.414;2023-11-22T06:51:59;34.08;;;17.55;;
77099;SDS011;66602;48.922;2.414;2023-11-22T06:54:24;27.23;;;16.80;;
77099;SDS011;66602;48.922;2.414;2023-11-22T06:56:50;32.65;;;18.08;;
77099;SDS011;66602;48.922;2.414;2023-11-22T06:59:16;44.63;;;26.48;;
77099;SDS011;66602;48.922;2.414;2023-11-22T07:01:42;39.17;;;19.63;;
77099;SDS011;66602;48.922;2.414;2023-11-22T07:04:08;22.42;;;15.90;;
77099;SDS011;66602;48.922;2.414;2023-11-22T07:06:33;25.58;;;15.63;;
77099;SDS011;66602;48.922;2.414;2023-11-22T07:08:59;24.38;;;15.10;;
77099;SDS011;66602;48.922;2.414;2023-11-22T07:11:25;27.02;;;16.90;;
77099;SDS011;66602;48.922;2.414;2023-11-22T07:13:51;29.55;;;16.45;;
77099;SDS011;66602;48.922;2.414;2023-11-22T07:16:17;32.70;;;18.10;;
77099;SDS011;66602;48.922;2.414;2023-11-22T07:18:44;31.00;;;17.20;;
77099;SDS011;66602;48.922;2.414;2023-11-22T07:21:10;31.13;;;18.13;;
77099;SDS011;66602;48.922;2.414;2023-11-22T07:23:37;38.30;;;18.27;;
77099;SDS011;66602;48.922;2.414;2023-11-22T07:26:03;31.23;;;18.27;;
77099;SDS011;66602;48.922;2.414;2023-11-22T07:28:29;31.48;;;18.98;;
77099;SDS011;66602;48.922;2.414;2023-11-22T07:30:55;36.35;;;18.25;;
77099;SDS011;66602;48.922;2.414;2023-11-22T07:33:21;31.17;;;18.05;;
77099;SDS011;66602;48.922;2.414;2023-11-22T07:35:47;33.05;;;18.27;;
77099;SDS011;66602;48.922;2.414;2023-11-22T07:38:13;36.78;;;18.77;;
77099;SDS011;66602;48.922;2.414;2023-11-22T07:40:39;32.03;;;18.08;;
77099;SDS011;66602;48.922;2.414;2023-11-22T07:43:05;36.63;;;20.15;;
77099;SDS011;66602;48.922;2.414;2023-11-22T07:45:31;40.22;;;21.48;;
77099;SDS011;66602;48.922;2.414;2023-11-22T07:47:59;43.85;;;20.75;;
77099;SDS011;66602;48.922;2.414;2023-11-22T07:50:26;39.97;;;20.30;;
77099;SDS011;66602;48.922;2.414;2023-11-22T07:52:52;53.30;;;21.92;;
77099;SDS011;66602;48.922;2.414;2023-11-22T07:55:17;44.80;;;21.85;;
77099;SDS011;66602;48.922;2.414;2023-11-22T07:57:43;42.97;;;21.50;;
77099;SDS011;66602;48.922;2.414;2023-11-22T08:00:10;37.80;;;20.45;;
77099;SDS011;66602;48.922;2.414;2023-11-22T08:02:36;39.72;;;20.10;;
77099;SDS011;66602;48.922;2.414;2023-11-22T08:05:06;37.95;;;20.25;;
77099;SDS011;66602;48.922;2.414;2023-11-22T08:07:36;30.85;;;18.60;;
77099;SDS011;66602;48.922;2.414;2023-11-22T08:10:06;35.10;;;19.55;;
77099;SDS011;66602;48.922;2.414;2023-11-22T08:12:50;39.08;;;20.33;;
77099;SDS011;66602;48.922;2.414;2023-11-22T08:15:16;30.13;;;18.50;;
77099;SDS011;66602;48.922;2.414;2023-11-22T08:17:44;37.70;;;19.15;;
77099;SDS011;66602;48.922;2.414;2023-11-22T08:20:10;39.28;;;20.25;;
77099;SDS011;66602;48.922;2.414;2023-11-22T08:22:42;35.70;;;19.33;;
77099;SDS011;66602;48.922;2.414;2023-11-22T08:25:10;38.15;;;19.48;;
77099;SDS011;66602;48.922;2.414;2023-11-22T08:27:38;36.42;;;20.13;;
77099;SDS011;66602;48.922;2.414;2023-11-22T08:30:05;38.53;;;20.02;;
77099;SDS011;66602;48.922;2.414;2023-11-22T08:32:34;32.78;;;19.38;;
77099;SDS011;66602;48.922;2.414;2023-11-22T08:35:00;34.25;;;18.80;;
77099;SDS011;66602;48.922;2.414;2023-11-22T08:37:26;60.60;;;23.92;;
77099;SDS011;66602;48.922;2.414;2023-11-22T08:39:51;43.65;;;20.88;;
77099;SDS011;66602;48.922;2.414;2023-11-22T08:42:17;51.15;;;21.52;;
77099;SDS011;66602;48.922;2.414;2023-11-22T08:44:43;61.72;;;24.40;;
77099;SDS011;66602;48.922;2.414;2023-11-22T08:47:08;32.97;;;19.67;;
77099;SDS011;66602;48.922;2.414;2023-11-22T08:49:34;48.45;;;22.60;;
77099;SDS011;66602;48.922;2.414;2023-11-22T08:51:59;30.63;;;19.10;;
77099;SDS011;66602;48.922;2.414;2023-11-22T08:54:27;31.50;;;18.88;;
77099;SDS011;66602;48.922;2.414;2023-11-22T08:56:54;32.15;;;19.30;;
77099;SDS011;66602;48.922;2.414;2023-11-22T08:59:21;30.75;;;18.55;;
77099;SDS011;66602;48.922;2.414;2023-11-22T09:01:47;32.40;;;17.90;;
77099;SDS011;66602;48.922;2.414;2023-11-22T09:04:12;31.77;;;17.85;;
77099;SDS011;66602;48.922;2.414;2023-11-22T09:06:38;26.73;;;17.83;;
77099;SDS011;66602;48.922;2.414;2023-11-22T09:09:04;27.38;;;17.65;;
77099;SDS011;66602;48.922;2.414;2023-11-22T09:11:30;25.25;;;16.95;;
77099;SDS011;66602;48.922;2.414;2023-11-22T09:13:56;36.45;;;16.98;;
77099;SDS011;66602;48.922;2.414;2023-11-22T09:16:22;29.02;;;17.73;;
77099;SDS011;66602;48.922;2.414;2023-11-22T09:18:50;22.42;;;15.68;;
77099;SDS011;66602;48.922;2.414;2023-11-22T09:21:16;23.98;;;16.27;;
77099;SDS011;66602;48.922;2.414;2023-11-22T09:23:45;24.48;;;16.42;;
77099;SDS011;66602;48.922;2.414;2023-11-22T09:26:10;27.73;;;16.42;;
77099;SDS011;66602;48.922;2.414;2023-11-22T09:28:36;22.67;;;16.05;;
77099;SDS011;66602;48.922;2.414;2023-11-22T09:31:01;25.67;;;15.88;;
77099;SDS011;66602;48.922;2.414;2023-11-22T09:33:31;22.85;;;16.80;;
77099;SDS011;66602;48.922;2.414;2023-11-22T09:35:56;23.15;;;14.98;;
77099;SDS011;66602;48.922;2.414;2023-11-22T09:38:23;21.48;;;14.88;;
77099;SDS011;66602;48.922;2.414;2023-11-22T09:40:49;20.70;;;14.93;;
77099;SDS011;66602;48.922;2.414;2023-11-22T09:43:15;19.52;;;15.50;;
77099;SDS011;66602;48.922;2.414;2023-11-22T09:45:45;19.75;;;14.73;;
77099;SDS011;66602;48.922;2.414;2023-11-22T09:48:20;15.23;;;13.48;;
77099;SDS011;66602;48.922;2.414;2023-11-22T09:53:25;21.48;;;13.82;;
77099;SDS011;66602;48.922;2.414;2023-11-22T09:55:58;20.23;;;14.30;;
77099;SDS011;66602;48.922;2.414;2023-11-22T09:58:25;17.83;;;12.65;;
77099;SDS011;66602;48.922;2.414;2023-11-22T10:00:54;14.77;;;13.07;;
77099;SDS011;66602;48.922;2.414;2023-11-22T10:03:20;14.27;;;12.55;;
77099;SDS011;66602;48.922;2.414;2023-11-22T10:05:46;17.98;;;13.60;;
77099;SDS011;66602;48.922;2.414;2023-11-22T10:08:12;13.73;;;12.40;;
77099;SDS011;66602;48.922;2.414;2023-11-22T10:10:38;13.65;;;12.32;;
77099;SDS011;66602;48.922;2.414;2023-11-22T10:13:05;14.80;;;11.75;;
77099;SDS011;66602;48.922;2.414;2023-11-22T10:15:31;14.02;;;11.93;;
77099;SDS011;66602;48.922;2.414;2023-11-22T10:17:59;13.95;;;12.52;;
77099;SDS011;66602;48.922;2.414;2023-11-22T10:20:35;13.00;;;11.77;;
77099;SDS011;66602;48.922;2.414;2023-11-22T10:23:10;12.60;;;11.30;;
77099;SDS011;66602;48.922;2.414;2023-11-22T10:25:42;12.52;;;11.55;;
77099;SDS011;66602;48.922;2.414;2023-11-22T10:28:16;12.02;;;10.90;;
77099;SDS011;66602;48.922;2.414;2023-11-22T10:30:46;13.27;;;12.13;;
77099;SDS011;66602;48.922;2.414;2023-11-22T10:33:13;11.02;;;10.20;;
77099;SDS011;66602;48.922;2.414;2023-11-22T10:35:57;10.43;;;9.80;;
77099;SDS011;66602;48.922;2.414;2023-11-22T10:38:23;14.27;;;10.32;;
77099;SDS011;66602;48.922;2.414;2023-11-22T10:40:49;10.38;;;9.40;;
77099;SDS011;66602;48.922;2.414;2023-11-22T10:43:17;10.18;;;9.40;;
77099;SDS011;66602;48.922;2.414;2023-11-22T10:45:43;10.10;;;9.50;;
77099;SDS011;66602;48.922;2.414;2023-11-22T10:48:16;10.90;;;10.10;;
77099;SDS011;66602;48.922;2.414;2023-11-22T10:50:42;11.60;;;10.70;;
77099;SDS011;66602;48.922;2.414;2023-11-22T10:53:10;10.73;;;9.63;;
77099;SDS011;66602;48.922;2.414;2023-11-22T10:55:39;11.00;;;10.20;;
77099;SDS011;66602;48.922;2.414;2023-11-22T10:58:12;9.73;;;8.95;;
77099;SDS011;66602;48.922;2.414;2023-11-22T11:00:40;9.45;;;8.75;;
77099;SDS011;66602;48.922;2.414;2023-11-22T11:03:08;9.23;;;8.73;;
77099;SDS011;66602;48.922;2.414;2023-11-22T11:05:41;9.52;;;8.70;;
77099;SDS011;66602;48.922;2.414;2023-11-22T11:08:14;8.30;;;7.80;;
77099;SDS011;66602;48.922;2.414;2023-11-22T11:10:43;10.38;;;9.45;;
77099;SDS011;66602;48.922;2.414;2023-11-22T11:13:10;9.73;;;9.02;;
77099;SDS011;66602;48.922;2.414;2023-11-22T11:15:40;11.68;;;7.85;;
77099;SDS011;66602;48.922;2.414;2023-11-22T11:18:12;8.27;;;7.78;;
77099;SDS011;66602;48.922;2.414;2023-11-22T11:20:52;7.85;;;7.43;;
77099;SDS011;66602;48.922;2.414;2023-11-22T11:23:21;8.35;;;7.85;;
77099;SDS011;66602;48.922;2.414;2023-11-22T11:25:55;8.68;;;8.00;;
77099;SDS011;66602;48.922;2.414;2023-11-22T11:28:23;9.23;;;7.85;;
77099;SDS011;66602;48.922;2.414;2023-11-22T11:30:53;7.13;;;6.72;;
77099;SDS011;66602;48.922;2.414;2023-11-22T11:33:19;7.90;;;7.38;;
77099;SDS011;66602;48.922;2.414;2023-11-22T11:38:20;10.27;;;9.35;;
77099;SDS011;66602;48.922;2.414;2023-11-22T11:40:48;7.80;;;7.40;;
77099;SDS011;66602;48.922;2.414;2023-11-22T11:43:14;7.07;;;6.40;;
77099;SDS011;66602;48.922;2.414;2023-11-22T11:45:42;8.07;;;6.85;;
77099;SDS011;66602;48.922;2.414;2023-11-22T11:48:15;6.28;;;5.88;;
77099;SDS011;66602;48.922;2.414;2023-11-22T11:50:42;6.50;;;6.20;;
77099;SDS011;66602;48.922;2.414;2023-11-22T11:53:08;5.85;;;5.53;;
77099;SDS011;66602;48.922;2.414;2023-11-22T11:55:35;7.07;;;6.57;;
77099;SDS011;66602;48.922;2.414;2023-11-22T11:58:05;7.18;;;6.57;;
77099;SDS011;66602;48.922;2.414;2023-11-22T12:00:32;7.28;;;6.68;;
77099;SDS011;66602;48.922;2.414;2023-11-22T12:02:58;7.57;;;7.18;;
77099;SDS011;66602;48.922;2.414;2023-11-22T12:05:23;8.00;;;7.50;;
77099;SDS011;66602;48.922;2.414;2023-11-22T12:07:50;7.70;;;7.20;;
77099;SDS011;66602;48.922;2.414;2023-11-22T12:10:15;7.55;;;7.15;;
77099;SDS011;66602;48.922;2.414;2023-11-22T12:12:42;6.82;;;6.40;;
77099;SDS011;66602;48.922;2.414;2023-11-22T12:15:09;7.10;;;6.70;;
77099;SDS011;66602;48.922;2.414;2023-11-22T12:17:35;6.60;;;6.20;;
77099;SDS011;66602;48.922;2.414;2023-11-22T12:20:14;6.00;;;5.50;;
77099;SDS011;66602;48.922;2.414;2023-11-22T12:22:46;5.60;;;5.22;;
77099;SDS011;66602;48.922;2.414;2023-11-22T12:25:13;4.10;;;3.90;;
77099;SDS011;66602;48.922;2.414;2023-11-22T12:27:42;4.78;;;4.47;;
77099;SDS011;66602;48.922;2.414;2023-11-22T12:30:09;5.50;;;5.20;;
77099;SDS011;66602;48.922;2.414;2023-11-22T12:32:52;5.50;;;4.70;;
77099;SDS011;66602;48.922;2.414;2023-11-22T12:35:17;5.07;;;4.65;;
77099;SDS011;66602;48.922;2.414;2023-11-22T12:37:44;4.47;;;4.28;;
77099;SDS011;66602;48.922;2.414;2023-11-22T12:40:09;4.45;;;4.25;;
77099;SDS011;66602;48.922;2.414;2023-11-22T12:42:45;3.78;;;3.47;;
77099;SDS011;66602;48.922;2.414;2023-11-22T12:45:21;3.85;;;3.55;;
77099;SDS011;66602;48.922;2.414;2023-11-22T12:47:49;4.70;;;4.40;;
77099;SDS011;66602;48.922;2.414;2023-11-22T12:50:31;4.93;;;4.63;;
77099;SDS011;66602;48.922;2.414;2023-11-22T12:52:59;4.25;;;3.92;;
77099;SDS011;66602;48.922;2.414;2023-11-22T12:55:32;4.40;;;4.20;;
77099;SDS011;66602;48.922;2.414;2023-11-22T12:57:58;3.38;;;3.10;;
77099;SDS011;66602;48.922;2.414;2023-11-22T13:00:28;4.00;;;3.80;;
77099;SDS011;66602;48.922;2.414;2023-11-22T13:02:58;3.33;;;3.13;;
77099;SDS011;66602;48.922;2.414;2023-11-22T13:05:24;3.38;;;3.17;;
77099;SDS011;66602;48.922;2.414;2023-11-22T13:07:50;3.20;;;2.90;;
77099;SDS011;66602;48.922;2.414;2023-11-22T13:10:16;2.53;;;2.42;;
77099;SDS011;66602;48.922;2.414;2023-11-22T13:12:45;2.83;;;2.72;;
77099;SDS011;66602;48.922;2.414;2023-11-22T13:15:11;2.92;;;2.72;;
77099;SDS011;66602;48.922;2.414;2023-11-22T13:17:37;2.92;;;2.72;;
77099;SDS011;66602;48.922;2.414;2023-11-22T13:20:06;3.28;;;3.08;;
77099;SDS011;66602;48.922;2.414;2023-11-22T13:22:39;4.32;;;4.13;;
77099;SDS011;66602;48.922;2.414;2023-11-22T13:25:06;4.63;;;4.30;;
77099;SDS011;66602;48.922;2.414;2023-11-22T13:27:52;4.10;;;3.90;;
77099;SDS011;66602;48.922;2.414;2023-11-22T13:30:18;4.72;;;4.32;;
77099;SDS011;66602;48.922;2.414;2023-11-22T13:32:53;4.05;;;3.85;;
77099;SDS011;66602;48.922;2.414;2023-11-22T13:35:23;4.63;;;4.32;;
77099;SDS011;66602;48.922;2.414;2023-11-22T13:37:51;4.10;;;3.90;;
77099;SDS011;66602;48.922;2.414;2023-11-22T13:40:18;3.80;;;3.60;;
77099;SDS011;66602;48.922;2.414;2023-11-22T13:42:47;4.45;;;4.15;;
77099;SDS011;66602;48.922;2.414;2023-11-22T13:45:17;4.97;;;4.68;;
77099;SDS011;66602;48.922;2.414;2023-11-22T13:47:44;5.50;;;5.07;;
77099;SDS011;66602;48.922;2.414;2023-11-22T13:50:11;5.03;;;4.72;;
77099;SDS011;66602;48.922;2.414;2023-11-22T13:52:39;5.05;;;4.70;;
77099;SDS011;66602;48.922;2.414;2023-11-22T13:55:05;4.47;;;4.07;;
77099;SDS011;66602;48.922;2.414;2023-11-22T13:57:36;5.13;;;4.82;;
77099;SDS011;66602;48.922;2.414;2023-11-22T14:00:02;4.85;;;4.45;;
77099;SDS011;66602;48.922;2.414;2023-11-22T14:02:43;4.30;;;4.10;;
77099;SDS011;66602;48.922;2.414;2023-11-22T14:05:12;4.65;;;4.35;;
77099;SDS011;66602;48.922;2.414;2023-11-22T14:07:37;4.35;;;4.05;;
77099;SDS011;66602;48.922;2.414;2023-11-22T14:10:04;5.63;;;3.80;;
77099;SDS011;66602;48.922;2.414;2023-11-22T14:12:31;4.30;;;3.70;;
77099;SDS011;66602;48.922;2.414;2023-11-22T14:14:57;4.18;;;3.78;;
77099;SDS011;66602;48.922;2.414;2023-11-22T14:17:23;5.95;;;3.63;;
77099;SDS011;66602;48.922;2.414;2023-11-22T14:19:49;4.55;;;4.15;;
77099;SDS011;66602;48.922;2.414;2023-11-22T14:22:15;3.55;;;3.30;;
77099;SDS011;66602;48.922;2.414;2023-11-22T14:24:42;3.80;;;3.50;;
77099;SDS011;66602;48.922;2.414;2023-11-22T14:27:09;4.22;;;3.83;;
77099;SDS011;66602;48.922;2.414;2023-11-22T14:29:35;3.55;;;3.35;;
77099;SDS011;66602;48.922;2.414;2023-11-22T14:32:01;3.35;;;3.15;;
77099;SDS011;66602;48.922;2.414;2023-11-22T14:34:27;3.65;;;3.35;;